createdAt,value
2019-05-14T00:01:31.989Z,100067.44
2019-05-14T00:04:03.625Z,100065.91
2019-05-14T00:06:35.633Z,100050.02
2019-05-14T00:09:07.740Z,100020.19
2019-05-14T00:11:41.856Z,99999.17
2019-05-14T00:14:13.113Z,100002.45
2019-05-14T00:16:44.959Z,100006.69
2019-05-14T00:19:16.594Z,100009.99
2019-05-14T00:21:48.743Z,99995.86
2019-05-14T00:24:21.708Z,99996.75
2019-05-14T00:26:53.696Z,99975.88
2019-05-14T00:29:25.383Z,99959.45
2019-05-14T00:31:57.563Z,99939.56
2019-05-14T00:34:31.551Z,99931.14
2019-05-14T00:37:03.157Z,99929.77
2019-05-14T00:39:37.143Z,99934.82
2019-05-14T00:42:09.142Z,99929.45
2019-05-14T00:44:53.757Z,99933.58
2019-05-14T00:47:14.380Z,99919.25
2019-05-14T00:49:46.144Z,99910.13
2019-05-14T00:52:17.704Z,99926.60
2019-05-14T00:54:49.490Z,99936.60
2019-05-14T00:57:23.668Z,99945.06
2019-05-14T00:59:55.145Z,99946.00
2019-05-14T01:02:27.140Z,99943.62
2019-05-14T01:04:58.970Z,99938.89
2019-05-14T01:07:32.004Z,99949.88
2019-05-14T01:10:03.873Z,99947.05
2019-05-14T01:12:35.484Z,99954.53
2019-05-14T01:15:10.799Z,99959.97
2019-05-14T01:17:42.152Z,99962.83
2019-05-14T01:20:14.143Z,99962.86
2019-05-14T01:22:45.773Z,99966.66
2019-05-14T01:25:17.396Z,99968.30
2019-05-14T01:27:51.635Z,99973.44
2019-05-14T01:30:22.782Z,99978.91
2019-05-14T01:32:54.178Z,99979.92
2019-05-14T01:35:26.212Z,99988.15
2019-05-14T01:37:58.238Z,99986.20
2019-05-14T01:40:31.504Z,99986.20
2019-05-14T01:43:03.562Z,99982.31
2019-05-14T01:45:35.229Z,99982.21
2019-05-14T01:48:07.268Z,99989.84
2019-05-14T01:50:41.415Z,99986.52
2019-05-14T01:53:12.711Z,99986.17
2019-05-14T01:55:44.492Z,99980.67
2019-05-14T01:58:16.075Z,99977.71
2019-05-14T02:00:48.114Z,99962.33
2019-05-14T02:03:21.450Z,99944.97
2019-05-14T02:05:53.199Z,99937.68
2019-05-14T02:08:24.886Z,99948.63
2019-05-14T02:10:56.382Z,99956.63
2019-05-14T02:13:32.300Z,99952.62
2019-05-14T02:16:07.198Z,99957.58
2019-05-14T02:18:39.056Z,99962.95
2019-05-14T02:21:11.804Z,99965.84
2019-05-14T02:23:44.110Z,99960.50
2019-05-14T02:26:16.152Z,99961.49
2019-05-14T02:28:48.139Z,99967.31
2019-05-14T02:31:20.418Z,99973.76
2019-05-14T02:33:52.660Z,99970.30
2019-05-14T02:36:24.825Z,99968.41
2019-05-14T02:39:00.114Z,99969.98
2019-05-14T02:41:30.338Z,99959.14
2019-05-14T02:44:02.334Z,99962.33
2019-05-14T02:46:34.379Z,99961.39
2019-05-14T02:49:06.448Z,99961.28
2019-05-14T02:51:39.164Z,99967.02
2019-05-14T02:54:11.323Z,99974.31
2019-05-14T02:56:49.470Z,99976.64
2019-05-14T02:59:19.614Z,99978.95
2019-05-14T03:01:51.127Z,99971.45
2019-05-14T03:04:23.102Z,99957.50
2019-05-14T03:06:59.218Z,99958.70
2019-05-14T03:09:31.569Z,99948.12
2019-05-14T03:12:03.543Z,99952.73
2019-05-14T03:14:39.291Z,99959.05
2019-05-14T03:17:10.668Z,99974.52
2019-05-14T03:19:43.789Z,99984.06
2019-05-14T03:22:27.587Z,99988.83
2019-05-14T03:24:52.330Z,99994.84
2019-05-14T03:27:24.412Z,100001.12
2019-05-14T03:29:58.648Z,100007.70
2019-05-14T03:32:41.710Z,100000.81
2019-05-14T03:35:13.699Z,100007.87
2019-05-14T03:37:44.108Z,100010.05
2019-05-14T03:40:19.235Z,100022.86
2019-05-14T03:42:49.709Z,100047.41
2019-05-14T03:45:24.618Z,100065.19
2019-05-14T03:47:59.176Z,100073.42
2019-05-14T03:50:33.929Z,100089.89
2019-05-14T03:53:05.580Z,100096.38
2019-05-14T03:55:46.337Z,100108.58
2019-05-14T03:58:30.059Z,100101.31
2019-05-14T04:01:02.534Z,100104.22
2019-05-14T04:03:39.947Z,100092.05
2019-05-14T04:06:31.289Z,100077.25
2019-05-14T04:09:10.993Z,100081.19
2019-05-14T04:12:03.416Z,100102.17
2019-05-14T04:14:39.662Z,100133.09
2019-05-14T04:17:15.799Z,100123.47
2019-05-14T04:19:49.945Z,100098.45
2019-05-14T04:22:24.067Z,100067.55
2019-05-14T04:24:59.402Z,100049.88
2019-05-14T04:27:32.950Z,100067.73
2019-05-14T04:30:09.275Z,100080.38
2019-05-14T04:32:41.746Z,100066.34
2019-05-14T04:35:13.721Z,100063.64
2019-05-14T04:37:49.349Z,100045.49
2019-05-14T04:40:19.237Z,100025.61
2019-05-14T04:42:50.745Z,100008.69
2019-05-14T04:45:22.907Z,100011.09
2019-05-14T04:47:54.300Z,100019.27
2019-05-14T04:50:29.455Z,100011.55
2019-05-14T04:52:59.996Z,100015.40
2019-05-14T04:55:32.112Z,100012.69
2019-05-14T04:58:03.669Z,99994.69
2019-05-14T05:00:35.062Z,99979.78
2019-05-14T05:03:11.697Z,99967.94
2019-05-14T05:05:42.199Z,99953.29
2019-05-14T05:08:14.627Z,99932.42
2019-05-14T05:10:49.464Z,99918.61
2019-05-14T05:13:24.282Z,99914.94
2019-05-14T05:15:59.490Z,99918.04
2019-05-14T05:18:33.853Z,99928.20
2019-05-14T05:21:11.548Z,99928.09
2019-05-14T05:23:49.286Z,99920.19
2019-05-14T05:26:28.545Z,99941.08
2019-05-14T05:29:06.335Z,99965.22
2019-05-14T05:31:34.551Z,99988.59
2019-05-14T05:34:09.440Z,100002.67
2019-05-14T05:36:42.235Z,100014.67
2019-05-14T05:39:13.829Z,100017.73
2019-05-14T05:41:49.012Z,100014.66
2019-05-14T05:44:20.817Z,100012.77
2019-05-14T05:46:52.544Z,100001.69
2019-05-14T05:49:24.351Z,99990.92
2019-05-14T05:51:59.226Z,99982.95
2019-05-14T05:54:33.330Z,99994.05
2019-05-14T05:57:09.246Z,99994.89
2019-05-14T06:03:14.168Z,99982.47
2019-05-14T06:05:29.551Z,99981.73
2019-05-14T06:08:28.125Z,99979.23
2019-05-14T06:10:58.902Z,99983.63
2019-05-14T06:13:36.082Z,99983.39
2019-05-14T06:16:10.030Z,99974.19
2019-05-14T06:18:42.979Z,99965.84
2019-05-14T06:21:22.005Z,99962.13
2019-05-14T06:24:08.957Z,99966.03
2019-05-14T06:26:58.655Z,99973.31
2019-05-14T06:29:38.128Z,99976.19
2019-05-14T06:32:09.826Z,99977.59
2019-05-14T06:34:41.688Z,99980.02
2019-05-14T06:37:13.637Z,99990.06
2019-05-14T06:39:45.225Z,99993.37
2019-05-14T06:42:19.267Z,99993.39
2019-05-14T06:44:50.876Z,99989.93
2019-05-14T06:47:25.120Z,99988.09
2019-05-14T06:49:59.251Z,99991.14
2019-05-14T06:52:30.462Z,99997.12
2019-05-14T06:55:02.237Z,100000.92
2019-05-14T06:57:33.927Z,100017.05
2019-05-14T07:00:08.293Z,100024.05
2019-05-14T07:02:43.744Z,100033.47
2019-05-14T07:05:13.101Z,100042.91
2019-05-14T07:07:49.314Z,100035.53
2019-05-14T07:10:20.269Z,100035.53
2019-05-14T07:12:59.161Z,100024.90
2019-05-14T07:15:31.192Z,100018.44
2019-05-14T07:18:13.162Z,100013.44
2019-05-14T07:20:48.620Z,100007.89
2019-05-14T07:23:21.544Z,100014.28
2019-05-14T07:25:53.907Z,100028.80
2019-05-14T07:28:28.965Z,100041.38
2019-05-14T07:30:59.866Z,100048.32
2019-05-14T07:33:35.215Z,100056.30
2019-05-14T07:36:14.713Z,100047.56
2019-05-14T07:38:51.870Z,100045.77
2019-05-14T07:41:28.475Z,100042.52
2019-05-14T07:44:03.093Z,100044.92
2019-05-14T07:46:34.600Z,100043.10
2019-05-14T07:49:11.815Z,100038.82
2019-05-14T07:52:06.144Z,100035.21
2019-05-14T07:54:39.113Z,100026.81
2019-05-14T07:57:11.459Z,100013.73
2019-05-14T07:59:44.829Z,100014.30
2019-05-14T08:02:19.375Z,100017.03
2019-05-14T08:04:53.243Z,100020.42
2019-05-14T08:07:24.739Z,100008.28
2019-05-14T08:09:58.378Z,100002.63
2019-05-14T08:12:29.988Z,99995.41
2019-05-14T08:15:15.273Z,99984.23
2019-05-14T08:17:38.753Z,99993.87
2019-05-14T08:20:18.340Z,99992.91
2019-05-14T08:22:50.872Z,99992.32
2019-05-14T08:25:22.812Z,100017.07
2019-05-14T08:27:54.367Z,100023.06
2019-05-14T08:30:28.326Z,100015.05
2019-05-14T08:33:00.138Z,100016.66
2019-05-14T08:35:34.075Z,100011.13
2019-05-14T08:38:11.377Z,99997.32
2019-05-14T08:40:43.126Z,99989.06
2019-05-14T08:43:14.636Z,99987.45
2019-05-14T08:45:48.459Z,99981.52
2019-05-14T08:48:21.744Z,99970.85
2019-05-14T08:50:53.597Z,99960.52
2019-05-14T08:53:25.328Z,99966.91
2019-05-14T08:55:58.936Z,99956.08
2019-05-14T08:58:31.171Z,99955.41
2019-05-14T09:01:02.619Z,99955.08
2019-05-14T09:03:34.192Z,99961.65
2019-05-14T09:06:08.923Z,99971.77
2019-05-14T09:08:39.845Z,99961.98
2019-05-14T09:11:11.818Z,99938.59
2019-05-14T09:13:43.575Z,99938.60
2019-05-14T09:16:15.579Z,99942.00
2019-05-14T09:18:49.091Z,99929.85
2019-05-14T09:21:29.565Z,99926.75
2019-05-14T09:24:00.069Z,99931.10
2019-05-14T09:26:31.817Z,99944.30
2019-05-14T09:29:18.211Z,99947.05
2019-05-14T09:31:39.115Z,99935.44
2019-05-14T09:34:10.591Z,99934.72
2019-05-14T09:36:42.476Z,99938.77
2019-05-14T09:39:14.219Z,99953.56
2019-05-14T09:41:48.051Z,99980.02
2019-05-14T09:44:19.195Z,100008.33
2019-05-14T09:46:53.311Z,100038.59
2019-05-14T09:49:28.393Z,100065.24
2019-05-14T09:52:00.545Z,100092.38
2019-05-14T09:54:32.222Z,100096.45
2019-05-14T09:57:04.224Z,100074.94
2019-05-14T09:59:35.731Z,100057.84
2019-05-14T10:02:09.219Z,100025.56
2019-05-14T10:04:41.389Z,99985.06
2019-05-14T10:07:15.789Z,99980.63
2019-05-14T10:09:51.798Z,99982.17
2019-05-14T10:12:23.635Z,99970.98
2019-05-14T10:14:55.645Z,99967.88
2019-05-14T10:17:28.962Z,99955.62
2019-05-14T10:20:01.961Z,99950.72
2019-05-14T10:22:34.127Z,99958.64
2019-05-14T10:25:09.093Z,99955.92
2019-05-14T10:27:41.015Z,99953.86
2019-05-14T10:30:14.668Z,99961.33
2019-05-14T10:32:49.030Z,99936.69
2019-05-14T10:35:20.195Z,99933.20
2019-05-14T10:37:54.901Z,99928.20
2019-05-14T10:40:29.093Z,99945.94
2019-05-14T10:43:00.067Z,99993.52
2019-05-14T10:45:32.414Z,99985.53
2019-05-14T10:48:04.553Z,99977.50
2019-05-14T10:50:45.544Z,99996.75
2019-05-14T10:53:09.654Z,99985.03
2019-05-14T10:55:41.775Z,99975.11
2019-05-14T10:58:13.451Z,99979.81
2019-05-14T11:00:45.449Z,99969.25
2019-05-14T11:03:18.607Z,99966.92
2019-05-14T11:05:50.400Z,99968.70
2019-05-14T11:08:22.525Z,99973.71
2019-05-14T11:10:54.432Z,99969.27
2019-05-14T11:13:28.947Z,99960.30
2019-05-14T11:15:59.873Z,99947.80
2019-05-14T11:18:31.832Z,99943.69
2019-05-14T11:21:18.544Z,99934.13
2019-05-14T11:23:38.650Z,99932.31
2019-05-14T11:26:10.402Z,99930.54
2019-05-14T11:28:42.794Z,99940.80
2019-05-14T11:31:15.223Z,99930.54
2019-05-14T11:33:49.570Z,99928.41
2019-05-14T11:36:21.399Z,99926.91
2019-05-14T11:38:53.100Z,99932.05
2019-05-14T11:41:24.978Z,99917.94
2019-05-14T11:43:59.394Z,99913.42
2019-05-14T11:46:43.591Z,99912.83
2019-05-14T11:49:08.872Z,99897.54
2019-05-14T11:51:59.294Z,99877.78
2019-05-14T11:54:14.687Z,99863.09
2019-05-14T11:56:51.430Z,99856.25
2019-05-14T11:59:20.598Z,99855.96
2019-05-14T12:01:54.960Z,99860.50
2019-05-14T12:04:28.393Z,99866.12
2019-05-14T12:07:02.814Z,99858.53
2019-05-14T12:09:35.825Z,99853.66
2019-05-14T12:12:12.353Z,99844.01
2019-05-14T12:14:41.100Z,99824.02
2019-05-14T12:17:13.085Z,99806.50
2019-05-14T12:19:44.719Z,99812.77
2019-05-14T12:22:18.982Z,99828.47
2019-05-14T12:24:50.500Z,99850.84
2019-05-14T12:27:24.376Z,99850.64
2019-05-14T12:29:59.659Z,99853.02
2019-05-14T12:32:30.332Z,99850.23
2019-05-14T12:35:02.029Z,99847.80
2019-05-14T12:37:34.057Z,99853.55
2019-05-14T12:40:08.807Z,99851.27
2019-05-14T12:42:40.505Z,99856.82
2019-05-14T12:45:12.308Z,99854.46
2019-05-14T12:47:44.281Z,99834.89
2019-05-14T12:50:16.719Z,99813.58
2019-05-14T12:52:48.745Z,99797.45
2019-05-14T12:55:20.440Z,99787.77
2019-05-14T12:57:51.987Z,99791.81
2019-05-14T13:00:24.165Z,99785.25
2019-05-14T13:02:58.276Z,99784.84
2019-05-14T13:05:29.512Z,99803.32
2019-05-14T13:08:01.164Z,99802.36
2019-05-14T13:10:33.812Z,99807.66
2019-05-14T13:13:08.237Z,99803.00
2019-05-14T13:15:39.531Z,99805.43
2019-05-14T13:18:10.983Z,99807.98
2019-05-14T13:20:42.720Z,99787.86
2019-05-14T13:23:18.211Z,99793.69
2019-05-14T13:25:50.368Z,99793.05
2019-05-14T13:28:21.974Z,99786.92
2019-05-14T13:30:53.400Z,99777.08
2019-05-14T13:33:25.133Z,99775.92
2019-05-14T13:35:59.404Z,99782.28
2019-05-14T13:38:39.321Z,99780.13
2019-05-14T13:41:08.661Z,99775.59
2019-05-14T13:43:40.740Z,99795.94
2019-05-14T13:46:14.960Z,99801.85
2019-05-14T13:48:45.841Z,99791.40
2019-05-14T13:51:19.538Z,99794.92
2019-05-14T13:53:50.940Z,99791.64
2019-05-14T13:56:22.959Z,99783.06
2019-05-14T13:58:58.912Z,99795.37
2019-05-14T14:01:30.064Z,99790.83
2019-05-14T14:04:10.812Z,99782.28
2019-05-14T14:06:35.003Z,99779.27
2019-05-14T14:09:12.326Z,99778.98
2019-05-14T14:11:40.799Z,99786.76
2019-05-14T14:14:12.797Z,99788.39
2019-05-14T14:16:44.745Z,99775.36
2019-05-14T14:19:18.602Z,99778.03
2019-05-14T14:21:49.954Z,99791.86
2019-05-14T14:24:21.431Z,99803.81
2019-05-14T14:27:00.791Z,99808.67
2019-05-14T14:29:32.640Z,99825.66
2019-05-14T14:32:04.553Z,99826.36
2019-05-14T14:34:40.993Z,99830.63
2019-05-14T14:37:10.219Z,99844.19
2019-05-14T14:39:42.045Z,99827.55
2019-05-14T14:42:19.592Z,99836.39
2019-05-14T14:44:51.694Z,99832.23
2019-05-14T14:47:23.231Z,99823.87
2019-05-14T14:49:54.883Z,99817.47
2019-05-14T14:52:29.099Z,99809.28
2019-05-14T14:54:59.963Z,99808.51
2019-05-14T14:57:31.577Z,99813.36
2019-05-14T15:00:03.748Z,99802.63
2019-05-14T15:02:52.925Z,99796.59
2019-05-14T15:05:39.013Z,99797.97
2019-05-14T15:08:10.608Z,99801.05
2019-05-14T15:10:42.545Z,99814.64
2019-05-14T15:13:14.276Z,99800.59
2019-05-14T15:15:49.235Z,99799.70
2019-05-14T15:18:19.426Z,99783.69
2019-05-14T15:20:51.050Z,99781.48
2019-05-14T15:23:23.163Z,99758.75
2019-05-14T15:25:58.912Z,99764.64
2019-05-14T15:28:38.721Z,99748.87
2019-05-14T15:31:11.449Z,99740.94
2019-05-14T15:33:43.334Z,99744.88
2019-05-14T15:36:15.056Z,99749.86
2019-05-14T15:38:48.639Z,99767.92
2019-05-14T15:41:20.677Z,99781.06
2019-05-14T15:43:52.454Z,99798.08
2019-05-14T15:46:24.194Z,99812.16
2019-05-14T15:48:59.308Z,99812.30
2019-05-14T15:51:29.408Z,99821.48
2019-05-14T15:54:16.074Z,99817.16
2019-05-14T15:56:35.010Z,99844.03
2019-05-14T15:59:10.208Z,99845.58
2019-05-14T16:01:41.802Z,99828.17
2019-05-14T16:04:14.868Z,99830.58
2019-05-14T16:06:48.882Z,99833.20
2019-05-14T16:09:23.905Z,99842.41
2019-05-14T16:11:55.806Z,99844.77
2019-05-14T16:14:33.437Z,99861.70
2019-05-14T16:17:11.535Z,99847.61
2019-05-14T16:19:43.591Z,99841.41
2019-05-14T16:22:21.057Z,99851.33
2019-05-14T16:24:56.936Z,99824.30
2019-05-14T16:27:26.231Z,99808.70
2019-05-14T16:29:59.323Z,99798.83
2019-05-14T16:32:32.834Z,99807.55
2019-05-14T16:35:22.619Z,99793.44
2019-05-14T16:38:02.253Z,99796.06
2019-05-14T16:40:36.186Z,99770.30
2019-05-14T16:43:09.290Z,99779.70
2019-05-14T16:45:49.058Z,99784.41
2019-05-14T16:48:20.451Z,99776.73
2019-05-14T16:57:31.398Z,99763.06
2019-05-14T17:00:18.504Z,99762.20
2019-05-14T17:02:50.954Z,99742.62
2019-05-14T17:05:30.267Z,99748.48
2019-05-14T17:08:19.282Z,99776.69
2019-05-14T17:10:54.769Z,99777.14
2019-05-14T17:13:28.551Z,99760.18
2019-05-14T17:16:15.159Z,99749.48
2019-05-14T17:18:55.105Z,99741.96
2019-05-14T17:21:28.347Z,99738.70
2019-05-14T17:24:00.694Z,99721.75
2019-05-14T17:26:32.106Z,99708.77
2019-05-14T17:29:04.100Z,99686.67
2019-05-14T17:31:38.849Z,99657.10
2019-05-14T17:34:09.383Z,99644.58
2019-05-14T17:36:41.420Z,99714.27
2019-05-14T17:39:13.273Z,99708.40
2019-05-14T17:41:45.450Z,99673.58
2019-05-14T17:44:19.042Z,99655.52
2019-05-14T17:46:50.465Z,99641.83
2019-05-14T17:49:24.259Z,99659.73
2019-05-14T17:51:57.979Z,99680.73
2019-05-14T17:54:30.984Z,99685.39
2019-05-14T17:57:03.221Z,99669.14
2019-05-14T17:59:34.895Z,99658.16
2019-05-14T18:02:08.671Z,99633.20
2019-05-14T18:04:40.408Z,99631.89
2019-05-14T18:07:12.230Z,99630.82
2019-05-14T18:09:44.360Z,99614.35
2019-05-14T18:12:20.760Z,99612.20
2019-05-14T18:15:21.335Z,99611.01
2019-05-14T18:17:53.077Z,99611.01
2019-05-14T18:20:24.995Z,99615.81
2019-05-14T18:22:58.319Z,99610.77
2019-05-14T18:25:33.503Z,99622.61
2019-05-14T18:28:25.550Z,99632.73
2019-05-14T18:30:58.589Z,99624.61
2019-05-14T18:33:32.688Z,99643.76
2019-05-14T18:36:08.889Z,99669.78
2019-05-14T18:38:39.225Z,99681.01
2019-05-14T18:41:10.820Z,99688.00
2019-05-14T18:43:46.587Z,99692.20
2019-05-14T18:46:21.742Z,99700.67
2019-05-14T18:48:53.510Z,99718.55
2019-05-14T18:51:28.760Z,99717.47
2019-05-14T18:54:00.702Z,99693.14
2019-05-14T18:56:34.336Z,99695.04
2019-05-14T18:59:08.753Z,99680.51
2019-05-14T19:01:40.026Z,99680.02
2019-05-14T19:04:12.732Z,99684.11
2019-05-14T19:06:44.727Z,99670.73
2019-05-14T19:09:18.634Z,99660.34
2019-05-14T19:11:51.530Z,99663.59
2019-05-14T19:14:23.075Z,99668.34
2019-05-14T19:16:55.104Z,99674.20
2019-05-14T19:19:26.704Z,99656.20
2019-05-14T19:21:58.666Z,99665.48
2019-05-14T19:24:30.403Z,99683.39
2019-05-14T19:27:01.922Z,99698.89
2019-05-14T19:29:33.677Z,99695.77
2019-05-14T19:32:08.248Z,99686.95
2019-05-14T19:34:38.649Z,99672.27
2019-05-14T19:37:10.293Z,99675.16
2019-05-14T19:39:42.125Z,99695.22
2019-05-14T19:42:14.427Z,99712.73
2019-05-14T19:44:48.297Z,99718.34
2019-05-14T19:47:19.883Z,99693.14
2019-05-14T19:49:52.349Z,99684.92
2019-05-14T19:52:24.101Z,99686.45
2019-05-14T19:54:56.141Z,99682.77
2019-05-14T19:57:29.088Z,99675.71
2019-05-14T20:00:01.146Z,99678.43
2019-05-14T20:02:32.711Z,99680.24
2019-05-14T20:05:05.669Z,99685.71
2019-05-14T20:07:39.062Z,99669.60
2019-05-14T20:10:11.447Z,99675.13
2019-05-14T20:12:43.082Z,99651.58
2019-05-14T20:15:15.286Z,99647.67
2019-05-14T20:17:49.065Z,99660.91
2019-05-14T20:20:20.797Z,99661.36
2019-05-14T20:22:52.872Z,99634.52
2019-05-14T20:25:24.605Z,99639.09
2019-05-14T20:27:58.582Z,99637.89
2019-05-14T20:30:29.970Z,99655.31
2019-05-14T20:33:05.268Z,99633.80
2019-05-14T20:35:37.271Z,99635.72
2019-05-14T20:38:09.228Z,99642.05
2019-05-14T20:40:41.314Z,99631.30
2019-05-14T20:43:13.042Z,99632.14
2019-05-14T20:45:45.553Z,99630.22
2019-05-14T20:48:18.810Z,99619.00
2019-05-14T20:50:50.837Z,99631.18
2019-05-14T20:53:22.599Z,99619.24
2019-05-14T20:55:54.930Z,99625.06
2019-05-14T20:58:27.909Z,99622.88
2019-05-14T21:01:00.042Z,99604.97
2019-05-14T21:03:31.927Z,99597.09
2019-05-14T21:06:03.439Z,99608.80
2019-05-14T21:08:35.001Z,99622.80
2019-05-14T21:11:08.271Z,99622.80
2019-05-14T21:13:40.128Z,99613.36
2019-05-14T21:16:11.918Z,99611.97
2019-05-14T21:18:44.852Z,99614.83
2019-05-14T21:21:18.538Z,99617.42
2019-05-14T21:23:50.954Z,99606.44
2019-05-14T21:26:22.728Z,99608.86
2019-05-14T21:28:54.717Z,99610.89
2019-05-14T21:31:28.383Z,99615.30
2019-05-14T21:34:00.981Z,99604.05
2019-05-14T21:36:33.037Z,99598.09
2019-05-14T21:39:07.943Z,99579.70
2019-05-14T21:41:39.799Z,99569.27
2019-05-14T21:44:11.363Z,99570.34
2019-05-14T21:46:43.324Z,99582.84
2019-05-14T21:49:15.528Z,99563.83
2019-05-14T21:51:48.316Z,99551.61
2019-05-14T21:54:20.555Z,99547.44
2019-05-14T21:56:52.454Z,99530.10
2019-05-14T21:59:24.336Z,99518.80
2019-05-14T22:01:58.874Z,99514.14
2019-05-14T22:04:30.349Z,99510.16
2019-05-14T22:07:02.017Z,99518.44
2019-05-14T22:14:43.662Z,99509.10
2019-05-14T22:17:15.580Z,99487.30
2019-05-14T22:19:49.088Z,99483.77
2019-05-14T22:22:21.598Z,99475.30
2019-05-14T22:24:53.190Z,99480.07
2019-05-14T22:27:25.368Z,99480.78
2019-05-14T22:29:58.657Z,99479.08
2019-05-14T22:32:30.933Z,99478.52
2019-05-14T22:35:02.654Z,99487.62
2019-05-14T22:37:34.310Z,99489.65
2019-05-14T22:40:06.863Z,99505.55
2019-05-14T22:42:39.424Z,99502.57
2019-05-14T22:45:11.297Z,99497.92
2019-05-14T22:47:43.286Z,99500.22
2019-05-14T22:50:14.993Z,99490.16
2019-05-14T22:52:48.669Z,99488.50
2019-05-14T22:55:20.896Z,99479.39
2019-05-14T22:57:54.211Z,99480.14
2019-05-14T23:00:28.634Z,99494.45
2019-05-14T23:03:00.582Z,99474.66
2019-05-14T23:05:32.918Z,99475.29
2019-05-14T23:08:05.283Z,99461.25
2019-05-14T23:10:38.909Z,99457.91
2019-05-14T23:13:10.337Z,99468.77
2019-05-14T23:15:42.454Z,99462.33
2019-05-14T23:18:14.614Z,99460.70
2019-05-14T23:20:49.143Z,99463.12
2019-05-14T23:23:21.214Z,99462.50
2019-05-14T23:25:54.713Z,99453.94
2019-05-14T23:28:39.529Z,99449.65
2019-05-14T23:30:59.986Z,99439.39
2019-05-14T23:33:32.244Z,99436.41
2019-05-14T23:36:04.264Z,99438.76
2019-05-14T23:38:38.435Z,99442.02
2019-05-14T23:41:09.449Z,99430.28
2019-05-14T23:43:41.065Z,99450.68
2019-05-14T23:46:13.090Z,99441.70
2019-05-14T23:48:45.434Z,99438.48
2019-05-14T23:51:18.210Z,99418.55
2019-05-14T23:53:50.376Z,99420.54
2019-05-14T23:56:21.932Z,99432.27
2019-05-14T23:58:57.889Z,99431.67
